createdAt,value
2023-02-16T00:00:30.685Z,17.52
2023-02-16T00:02:57.965Z,16.40
2023-02-16T00:05:34.438Z,16.17
2023-02-16T00:08:01.768Z,17.63
2023-02-16T00:10:36.519Z,16.63
2023-02-16T00:13:41.183Z,16.13
2023-02-16T00:16:28.257Z,16.50
2023-02-16T00:18:54.805Z,16.05
2023-02-16T00:21:22.089Z,17.38
2023-02-16T00:23:48.863Z,16.63
2023-02-16T00:26:18.426Z,17.30
2023-02-16T00:28:45.468Z,18.20
2023-02-16T00:31:23.894Z,17.83
2023-02-16T00:33:50.581Z,17.10
2023-02-16T00:36:17.169Z,17.42
2023-02-16T00:38:43.804Z,18.38
2023-02-16T00:41:36.043Z,19.90
2023-02-16T00:46:33.749Z,20.67
2023-02-16T00:49:04.069Z,21.33
2023-02-16T00:51:33.984Z,21.65
2023-02-16T00:54:02.601Z,22.90
2023-02-16T00:56:29.126Z,22.50
2023-02-16T00:58:55.798Z,23.30
2023-02-16T01:01:25.845Z,23.50
2023-02-16T01:03:52.607Z,24.08
2023-02-16T01:06:38.229Z,25.00
2023-02-16T01:09:35.556Z,24.25
2023-02-16T01:12:17.783Z,24.52
2023-02-16T01:14:47.649Z,25.23
2023-02-16T01:17:14.183Z,27.17
2023-02-16T01:19:40.735Z,26.38
2023-02-16T01:22:07.197Z,27.35
2023-02-16T01:24:33.717Z,28.75
2023-02-16T01:27:00.185Z,30.00
2023-02-16T01:29:26.657Z,29.67
2023-02-16T01:31:53.276Z,30.05
2023-02-16T01:34:22.443Z,31.13
2023-02-16T01:36:49.513Z,28.70
2023-02-16T01:39:18.670Z,31.42
2023-02-16T01:41:51.500Z,32.13
2023-02-16T01:44:36.378Z,31.10
2023-02-16T01:47:16.051Z,31.50
2023-02-16T01:49:45.905Z,29.65
2023-02-16T01:52:33.866Z,33.03
2023-02-16T01:55:07.298Z,32.67
2023-02-16T01:57:46.918Z,32.30
2023-02-16T02:00:41.170Z,33.20
2023-02-16T02:03:37.630Z,32.05
2023-02-16T02:06:04.786Z,33.03
2023-02-16T02:08:45.306Z,33.28
2023-02-16T02:11:20.818Z,33.88
2023-02-16T02:14:08.491Z,30.38
2023-02-16T02:16:35.444Z,32.55
2023-02-16T02:19:01.935Z,29.35
2023-02-16T02:22:02.399Z,32.75
2023-02-16T02:24:44.908Z,30.85
2023-02-16T02:27:34.714Z,31.42
2023-02-16T02:30:16.426Z,30.83
2023-02-16T02:33:13.628Z,30.13
2023-02-16T02:35:49.216Z,28.88
2023-02-16T02:38:27.716Z,30.35
2023-02-16T02:41:00.255Z,29.90
2023-02-16T02:43:38.837Z,28.67
2023-02-16T02:46:19.030Z,29.52
2023-02-16T02:48:45.528Z,27.90
2023-02-16T02:51:28.579Z,28.63
2023-02-16T02:54:19.265Z,29.90
2023-02-16T02:57:10.139Z,30.38
2023-02-16T02:59:58.984Z,30.67
2023-02-16T03:02:28.933Z,30.80
2023-02-16T03:04:57.824Z,29.45
2023-02-16T03:07:45.307Z,30.48
2023-02-16T03:10:31.954Z,30.27
2023-02-16T03:13:00.479Z,31.50
2023-02-16T03:15:28.971Z,31.92
2023-02-16T03:18:16.285Z,32.63
2023-02-16T03:21:04.449Z,33.03
2023-02-16T03:23:50.925Z,32.65
2023-02-16T03:26:38.014Z,34.58
2023-02-16T03:29:22.537Z,36.22
2023-02-16T03:31:51.639Z,36.03
2023-02-16T03:34:19.982Z,36.22
2023-02-16T03:36:51.623Z,36.85
2023-02-16T03:39:19.821Z,36.40
2023-02-16T03:41:50.175Z,35.17
2023-02-16T03:44:17.157Z,36.00
2023-02-16T03:46:47.229Z,36.33
2023-02-16T03:49:13.682Z,36.83
2023-02-16T03:51:40.288Z,35.85
2023-02-16T03:54:07.167Z,35.38
2023-02-16T03:56:33.668Z,36.25
2023-02-16T03:59:00.333Z,35.55
2023-02-16T04:01:26.796Z,36.50
2023-02-16T04:03:53.307Z,35.35
2023-02-16T04:06:19.874Z,33.92
2023-02-16T04:08:46.581Z,32.00
2023-02-16T04:11:31.481Z,32.67
2023-02-16T04:13:58.018Z,33.65
2023-02-16T04:16:24.554Z,34.25
2023-02-16T04:18:51.129Z,35.30
2023-02-16T04:21:17.575Z,34.25
2023-02-16T04:23:44.622Z,35.13
2023-02-16T04:26:11.070Z,32.80
2023-02-16T04:28:38.112Z,34.25
2023-02-16T04:31:05.102Z,34.22
2023-02-16T04:33:32.092Z,33.60
2023-02-16T04:36:01.667Z,34.60
2023-02-16T04:38:28.144Z,33.78
2023-02-16T04:40:54.617Z,32.95
2023-02-16T04:43:21.153Z,33.97
2023-02-16T04:45:47.741Z,31.55
2023-02-16T04:48:15.258Z,33.40
2023-02-16T04:50:41.784Z,32.58
2023-02-16T04:53:08.241Z,32.97
2023-02-16T04:55:34.757Z,33.97
2023-02-16T04:58:01.248Z,32.85
2023-02-16T05:00:27.707Z,31.77
2023-02-16T05:02:54.300Z,34.60
2023-02-16T05:05:20.827Z,31.83
2023-02-16T05:07:47.362Z,32.67
2023-02-16T05:10:13.823Z,31.27
2023-02-16T05:12:58.688Z,31.80
2023-02-16T05:15:25.200Z,30.83
2023-02-16T05:17:51.713Z,31.58
2023-02-16T05:20:18.333Z,31.45
2023-02-16T05:22:46.222Z,32.85
2023-02-16T05:25:13.060Z,30.77
2023-02-16T05:27:39.549Z,31.83
2023-02-16T05:30:07.354Z,30.42
2023-02-16T05:32:33.952Z,32.08
2023-02-16T05:35:00.451Z,30.10
2023-02-16T05:37:26.986Z,31.85
2023-02-16T05:39:53.486Z,31.75
2023-02-16T05:42:19.940Z,32.60
2023-02-16T05:44:46.463Z,31.98
2023-02-16T05:47:12.931Z,31.20
2023-02-16T05:49:39.421Z,32.95
2023-02-16T05:52:05.958Z,32.40
2023-02-16T05:54:34.565Z,32.00
2023-02-16T05:57:01.057Z,32.58
2023-02-16T05:59:27.612Z,32.83
2023-02-16T06:01:54.620Z,30.45
2023-02-16T06:04:22.079Z,29.67
2023-02-16T06:06:48.942Z,29.60
2023-02-16T06:09:15.547Z,28.48
2023-02-16T06:11:43.532Z,28.88
2023-02-16T06:14:13.522Z,29.05
2023-02-16T06:16:41.825Z,28.05
2023-02-16T06:19:09.434Z,27.00
2023-02-16T06:21:38.839Z,27.70
2023-02-16T06:24:06.497Z,25.77
2023-02-16T06:26:33.523Z,27.15
2023-02-16T06:29:02.967Z,24.80
2023-02-16T06:31:29.494Z,27.00
2023-02-16T06:33:59.733Z,26.33
2023-02-16T06:36:26.286Z,26.38
2023-02-16T06:38:52.968Z,27.58
2023-02-16T06:41:31.687Z,25.73
2023-02-16T06:43:59.991Z,25.02
2023-02-16T06:46:27.216Z,26.05
2023-02-16T06:48:54.314Z,25.58
2023-02-16T06:51:21.004Z,25.75
2023-02-16T06:53:47.845Z,24.40
2023-02-16T06:56:14.345Z,24.30
2023-02-16T06:58:41.061Z,23.38
2023-02-16T07:01:07.828Z,24.08
2023-02-16T07:03:35.367Z,22.52
2023-02-16T07:06:02.180Z,22.25
2023-02-16T07:08:28.818Z,21.10
2023-02-16T07:10:55.404Z,22.40
2023-02-16T07:13:22.010Z,20.25
2023-02-16T07:15:48.487Z,21.05
2023-02-16T07:18:14.988Z,19.17
2023-02-16T07:20:41.927Z,18.58
2023-02-16T07:23:08.438Z,18.60
2023-02-16T07:25:37.004Z,17.73
2023-02-16T07:28:04.310Z,17.67
2023-02-16T07:30:34.299Z,17.55
2023-02-16T07:33:00.798Z,18.52
2023-02-16T07:35:27.341Z,18.95
2023-02-16T07:37:53.951Z,17.92
2023-02-16T07:40:20.525Z,18.50
2023-02-16T07:42:47.023Z,17.95
2023-02-16T07:45:13.728Z,17.77
2023-02-16T07:47:40.188Z,17.27
2023-02-16T07:50:07.305Z,16.95
2023-02-16T07:52:34.567Z,15.98
2023-02-16T07:55:01.342Z,15.15
2023-02-16T07:57:29.080Z,15.00
2023-02-16T07:59:55.931Z,14.23
2023-02-16T08:02:23.416Z,15.38
2023-02-16T08:04:52.657Z,14.63
2023-02-16T08:07:19.871Z,14.30
2023-02-16T08:09:46.389Z,13.65
2023-02-16T08:12:14.327Z,14.05
2023-02-16T08:14:40.969Z,13.15
2023-02-16T08:17:08.159Z,13.40
2023-02-16T08:19:34.868Z,14.65
2023-02-16T08:22:02.496Z,12.52
2023-02-16T08:24:29.121Z,14.32
2023-02-16T08:26:55.921Z,14.57
2023-02-16T08:29:23.434Z,14.65
2023-02-16T08:31:50.586Z,14.23
2023-02-16T08:34:19.007Z,14.25
2023-02-16T08:36:47.664Z,15.40
2023-02-16T08:39:19.473Z,14.00
2023-02-16T08:41:48.780Z,13.48
2023-02-16T08:44:17.314Z,13.27
2023-02-16T08:46:45.858Z,13.48
2023-02-16T08:49:14.176Z,13.05
2023-02-16T08:51:43.348Z,12.95
2023-02-16T08:54:17.900Z,13.00
2023-02-16T08:56:47.060Z,13.07
2023-02-16T08:59:18.214Z,12.93
2023-02-16T09:01:45.163Z,13.30
2023-02-16T09:04:13.122Z,12.95
2023-02-16T09:06:41.966Z,12.48
2023-02-16T09:09:09.186Z,12.50
2023-02-16T09:11:36.206Z,12.02
2023-02-16T09:14:03.845Z,11.70
2023-02-16T09:16:34.704Z,11.48
2023-02-16T09:19:01.881Z,10.77
2023-02-16T09:21:33.071Z,10.60
2023-02-16T09:24:04.413Z,10.82
2023-02-16T09:26:34.143Z,10.38
2023-02-16T09:29:02.039Z,10.70
2023-02-16T09:31:32.565Z,10.10
2023-02-16T09:34:06.160Z,10.27
2023-02-16T09:36:32.731Z,10.45
2023-02-16T09:39:00.032Z,10.30
2023-02-16T09:41:35.764Z,10.45
2023-02-16T09:44:37.936Z,10.38
2023-02-16T09:47:11.535Z,10.30
2023-02-16T09:49:42.275Z,10.65
2023-02-16T09:52:10.215Z,10.43
2023-02-16T09:54:47.039Z,12.20
2023-02-16T09:57:31.779Z,12.00
2023-02-16T10:00:14.437Z,11.00
2023-02-16T10:03:00.619Z,11.63
2023-02-16T10:05:41.351Z,12.60
2023-02-16T10:08:11.892Z,12.18
2023-02-16T10:10:53.425Z,11.35
2023-02-16T10:13:34.774Z,12.07
2023-02-16T10:16:02.918Z,11.80
2023-02-16T10:18:40.103Z,11.18
2023-02-16T10:21:15.302Z,12.02
2023-02-16T10:23:50.041Z,11.27
2023-02-16T10:26:32.133Z,10.52
2023-02-16T10:31:43.472Z,11.10
2023-02-16T10:34:28.931Z,10.50
2023-02-16T10:37:12.368Z,10.57
2023-02-16T10:39:46.321Z,10.30
2023-02-16T10:42:33.992Z,10.68
2023-02-16T10:45:33.433Z,10.07
2023-02-16T10:48:00.465Z,10.77
2023-02-16T10:50:40.076Z,11.77
2023-02-16T10:53:15.705Z,12.23
2023-02-16T10:55:42.392Z,11.30
2023-02-16T10:58:39.057Z,12.00
2023-02-16T11:01:34.814Z,11.30
2023-02-16T11:04:01.470Z,10.73
2023-02-16T11:06:29.054Z,10.70
2023-02-16T11:09:01.050Z,11.13
2023-02-16T11:14:02.550Z,10.85
2023-02-16T11:16:29.848Z,11.60
2023-02-16T11:19:01.353Z,11.48
2023-02-16T11:21:50.252Z,10.85
2023-02-16T11:24:32.371Z,11.15
2023-02-16T11:29:31.549Z,11.50
2023-02-16T11:31:59.476Z,12.48
2023-02-16T11:34:31.679Z,11.43
2023-02-16T11:37:05.173Z,11.82
2023-02-16T11:39:37.483Z,12.43
2023-02-16T11:42:08.828Z,11.82
2023-02-16T11:44:46.597Z,11.85
2023-02-16T11:47:33.555Z,12.48
2023-02-16T11:50:29.720Z,12.13
2023-02-16T11:53:23.010Z,11.57
2023-02-16T11:55:50.356Z,12.38
2023-02-16T11:58:19.308Z,11.60
2023-02-16T12:01:21.396Z,11.20
2023-02-16T12:04:09.613Z,10.85
2023-02-16T12:07:08.829Z,10.63
2023-02-16T12:10:02.779Z,10.55
2023-02-16T12:13:08.148Z,9.88
2023-02-16T12:16:15.672Z,9.73
2023-02-16T12:18:59.250Z,9.50
2023-02-16T12:21:48.228Z,8.63
2023-02-16T12:24:40.502Z,8.77
2023-02-16T12:30:03.108Z,8.88
2023-02-16T12:33:14.317Z,8.98
2023-02-16T12:35:55.482Z,9.93
2023-02-16T12:38:30.986Z,9.85
2023-02-16T12:41:12.366Z,10.07
2023-02-16T12:43:45.085Z,10.77
2023-02-16T12:46:18.403Z,10.65
2023-02-16T12:48:50.726Z,10.00
2023-02-16T12:51:22.558Z,9.93
2023-02-16T12:54:04.563Z,10.88
2023-02-16T12:56:54.207Z,10.52
2023-02-16T12:59:33.736Z,9.82
2023-02-16T13:02:01.711Z,9.93
2023-02-16T13:04:37.217Z,10.85
2023-02-16T13:07:28.673Z,9.52
2023-02-16T13:10:00.058Z,10.60
2023-02-16T13:12:38.546Z,11.43
2023-02-16T13:15:20.573Z,12.45
2023-02-16T13:17:58.575Z,12.30
2023-02-16T13:20:25.282Z,11.95
2023-02-16T13:23:12.486Z,13.23
2023-02-16T13:26:10.817Z,12.98
2023-02-16T13:29:12.186Z,12.40
2023-02-16T13:32:22.519Z,13.35
2023-02-16T13:35:08.021Z,13.45
2023-02-16T13:37:37.455Z,13.00
2023-02-16T13:40:29.475Z,12.40
2023-02-16T13:43:23.402Z,12.75
2023-02-16T13:45:54.284Z,14.18
2023-02-16T13:48:53.438Z,12.98
2023-02-16T13:51:22.482Z,13.48
2023-02-16T13:54:02.910Z,13.82
2023-02-16T13:56:29.886Z,14.02
2023-02-16T13:59:00.545Z,14.10
2023-02-16T14:01:37.770Z,13.30
2023-02-16T14:04:24.702Z,12.55
2023-02-16T14:07:17.589Z,13.05
2023-02-16T14:09:49.092Z,12.38
2023-02-16T14:12:25.708Z,12.95
2023-02-16T14:14:52.767Z,12.80
2023-02-16T14:17:33.441Z,12.13
2023-02-16T14:20:09.060Z,11.82
2023-02-16T14:22:53.311Z,12.35
2023-02-16T14:25:19.691Z,13.63
2023-02-16T14:27:49.891Z,13.02
2023-02-16T14:30:36.266Z,12.90
2023-02-16T14:33:17.817Z,12.73
2023-02-16T14:35:59.613Z,13.65
2023-02-16T14:38:28.164Z,13.75
2023-02-16T14:40:57.212Z,16.42
2023-02-16T14:43:29.792Z,13.52
2023-02-16T14:46:14.598Z,14.13
2023-02-16T14:49:00.442Z,14.50
2023-02-16T14:51:42.554Z,13.15
2023-02-16T14:57:17.716Z,15.45
2023-02-16T15:00:01.723Z,14.07
2023-02-16T15:02:35.598Z,14.40
2023-02-16T15:05:19.564Z,14.98
2023-02-16T15:07:52.072Z,14.75
2023-02-16T15:10:27.581Z,15.10
2023-02-16T15:12:55.911Z,14.82
2023-02-16T15:15:49.012Z,14.80
2023-02-16T15:18:19.687Z,15.68
2023-02-16T15:20:51.189Z,15.55
2023-02-16T15:23:21.535Z,15.73
2023-02-16T15:25:58.967Z,15.50
2023-02-16T15:28:35.808Z,16.48
2023-02-16T15:31:08.662Z,15.55
2023-02-16T15:33:38.386Z,15.15
2023-02-16T15:36:12.068Z,16.13
2023-02-16T15:38:54.365Z,16.55
2023-02-16T15:41:34.282Z,16.60
2023-02-16T15:44:02.662Z,17.48
2023-02-16T15:46:39.748Z,18.50
2023-02-16T15:49:21.378Z,16.83
2023-02-16T15:51:49.285Z,18.35
2023-02-16T15:54:27.961Z,17.20
2023-02-16T15:56:56.865Z,17.73
2023-02-16T15:59:37.568Z,18.50
2023-02-16T16:02:10.961Z,18.90
2023-02-16T16:04:41.057Z,18.60
2023-02-16T16:07:15.984Z,20.17
2023-02-16T16:09:43.823Z,20.65
2023-02-16T16:12:14.246Z,20.77
2023-02-16T16:14:51.843Z,20.92
2023-02-16T16:17:24.748Z,20.40
2023-02-16T16:19:51.405Z,23.15
2023-02-16T16:22:27.023Z,21.30
2023-02-16T16:24:53.512Z,21.95
2023-02-16T16:27:29.772Z,21.58
2023-02-16T16:30:27.550Z,22.20
2023-02-16T16:33:10.277Z,20.85
2023-02-16T16:35:46.336Z,20.75
2023-02-16T16:38:37.783Z,20.33
2023-02-16T16:41:04.975Z,20.57
2023-02-16T16:43:56.916Z,21.05
2023-02-16T16:46:29.275Z,19.35
2023-02-16T16:49:03.335Z,20.42
2023-02-16T16:51:32.854Z,20.88
2023-02-16T16:54:01.684Z,18.33
2023-02-16T16:56:29.584Z,20.00
2023-02-16T16:59:00.049Z,19.98
2023-02-16T17:01:28.165Z,21.48
2023-02-16T17:03:54.758Z,21.13
2023-02-16T17:06:22.444Z,20.65
2023-02-16T17:08:49.082Z,21.30
2023-02-16T17:11:27.751Z,22.45
2023-02-16T17:13:55.809Z,22.05
2023-02-16T17:16:43.393Z,22.60
2023-02-16T17:19:13.215Z,22.05
2023-02-16T17:21:39.902Z,21.02
2023-02-16T17:24:07.359Z,22.80
2023-02-16T17:26:34.302Z,22.48
2023-02-16T17:29:00.809Z,22.98
2023-02-16T17:31:27.561Z,24.42
2023-02-16T17:33:54.144Z,23.05
2023-02-16T17:36:22.742Z,23.83
2023-02-16T17:38:49.275Z,24.25
2023-02-16T17:41:25.167Z,23.65
2023-02-16T17:43:52.075Z,24.88
2023-02-16T17:46:20.028Z,24.73
2023-02-16T17:48:53.832Z,21.88
2023-02-16T17:51:21.685Z,24.98
2023-02-16T17:53:48.275Z,24.48
2023-02-16T17:56:18.026Z,22.92
2023-02-16T17:58:44.675Z,24.23
2023-02-16T18:01:14.699Z,23.73
2023-02-16T18:03:42.061Z,25.63
2023-02-16T18:06:13.005Z,25.50
2023-02-16T18:08:39.465Z,24.98
2023-02-16T18:11:09.130Z,25.20
2023-02-16T18:13:35.917Z,27.67
2023-02-16T18:16:07.126Z,26.70
2023-02-16T18:18:36.709Z,27.58
2023-02-16T18:21:03.564Z,26.83
2023-02-16T18:23:30.041Z,26.25
2023-02-16T18:25:56.692Z,27.20
2023-02-16T18:28:27.938Z,25.55
2023-02-16T18:30:54.509Z,27.17
2023-02-16T18:33:22.115Z,27.25
2023-02-16T18:35:51.568Z,27.92
2023-02-16T18:38:21.366Z,29.02
2023-02-16T18:40:48.880Z,28.70
2023-02-16T18:43:15.451Z,28.38
2023-02-16T18:45:42.434Z,28.38
2023-02-16T18:48:09.033Z,29.85
2023-02-16T18:50:35.532Z,28.80
2023-02-16T18:53:02.024Z,29.70
2023-02-16T18:55:32.832Z,28.85
2023-02-16T18:58:00.842Z,29.67
2023-02-16T19:00:28.138Z,29.92
2023-02-16T19:02:55.357Z,30.50
2023-02-16T19:05:21.865Z,31.77
2023-02-16T19:07:48.482Z,29.75
2023-02-16T19:10:15.498Z,29.52
2023-02-16T19:12:41.958Z,30.00
2023-02-16T19:15:09.175Z,29.25
2023-02-16T19:17:36.424Z,29.92
2023-02-16T19:20:02.946Z,29.95
2023-02-16T19:22:29.446Z,29.02
2023-02-16T19:24:55.914Z,29.42
2023-02-16T19:27:22.386Z,30.50
2023-02-16T19:29:48.854Z,30.42
2023-02-16T19:32:15.405Z,31.27
2023-02-16T19:34:41.964Z,29.40
2023-02-16T19:37:08.506Z,28.40
2023-02-16T19:39:37.888Z,27.58
2023-02-16T19:42:04.575Z,27.23
2023-02-16T19:44:31.023Z,26.65
2023-02-16T19:46:57.608Z,28.20
2023-02-16T19:49:24.075Z,27.38
2023-02-16T19:51:50.599Z,27.85
2023-02-16T19:54:17.050Z,28.88
2023-02-16T19:56:43.514Z,27.48
2023-02-16T19:59:10.160Z,28.17
2023-02-16T20:01:36.934Z,28.52
2023-02-16T20:04:03.976Z,27.63
2023-02-16T20:06:40.371Z,26.73
2023-02-16T20:09:07.228Z,27.90
2023-02-16T20:11:34.447Z,26.42
2023-02-16T20:14:01.954Z,26.15
2023-02-16T20:16:28.529Z,25.75
2023-02-16T20:18:55.443Z,25.92
2023-02-16T20:21:25.027Z,27.35
2023-02-16T20:23:55.002Z,26.02
2023-02-16T20:26:30.603Z,25.80
2023-02-16T20:28:58.386Z,25.92
2023-02-16T20:31:31.436Z,26.48
2023-02-16T20:33:58.425Z,25.45
2023-02-16T20:36:24.937Z,25.80
2023-02-16T20:38:51.520Z,26.33
2023-02-16T20:41:19.002Z,25.95
2023-02-16T20:43:46.067Z,25.10
2023-02-16T20:46:14.091Z,26.35
2023-02-16T20:48:40.714Z,26.88
2023-02-16T20:51:10.144Z,23.30
2023-02-16T20:53:36.669Z,25.73
2023-02-16T20:56:20.047Z,24.63
2023-02-16T20:58:47.912Z,25.60
2023-02-16T21:01:18.815Z,26.05
2023-02-16T21:03:45.439Z,23.52
2023-02-16T21:06:14.902Z,23.20
2023-02-16T21:08:41.366Z,23.88
2023-02-16T21:11:08.020Z,23.42
2023-02-16T21:13:34.558Z,23.08
2023-02-16T21:16:01.073Z,24.98
2023-02-16T21:18:27.731Z,23.75
2023-02-16T21:20:54.279Z,24.08
2023-02-16T21:23:20.751Z,24.30
2023-02-16T21:25:47.581Z,25.10
2023-02-16T21:28:14.316Z,24.30
2023-02-16T21:30:41.765Z,23.95
2023-02-16T21:33:08.234Z,23.80
2023-02-16T21:35:34.739Z,22.10
2023-02-16T21:38:04.627Z,21.90
2023-02-16T21:40:49.727Z,20.67
2023-02-16T21:43:17.209Z,21.13
2023-02-16T21:45:43.713Z,22.80
2023-02-16T21:48:29.918Z,22.65
2023-02-16T21:50:59.500Z,23.02
2023-02-16T21:53:25.972Z,23.25
2023-02-16T21:56:10.891Z,22.40
2023-02-16T21:58:39.084Z,22.17
2023-02-16T22:01:05.631Z,23.70
2023-02-16T22:03:32.213Z,24.48
2023-02-16T22:06:03.900Z,23.65
2023-02-16T22:11:16.275Z,23.50
2023-02-16T22:13:42.854Z,22.48
2023-02-16T22:16:13.778Z,22.00
2023-02-16T22:18:40.885Z,23.60
2023-02-16T22:21:07.947Z,23.05
2023-02-16T22:23:35.296Z,22.48
2023-02-16T22:26:03.216Z,23.17
2023-02-16T22:28:30.209Z,23.92
2023-02-16T22:31:09.309Z,22.65
2023-02-16T22:33:40.774Z,23.88
2023-02-16T22:36:11.705Z,23.95
2023-02-16T22:38:38.244Z,23.33
2023-02-16T22:41:06.726Z,25.63
2023-02-16T22:43:33.271Z,26.98
2023-02-16T22:46:00.112Z,27.95
2023-02-16T22:48:26.700Z,27.73
2023-02-16T22:50:58.944Z,27.55
2023-02-16T22:53:29.439Z,26.98
2023-02-16T22:55:58.305Z,26.90
2023-02-16T22:58:27.785Z,28.63
2023-02-16T23:00:55.531Z,28.05
2023-02-16T23:03:22.235Z,28.27
2023-02-16T23:05:49.076Z,27.45
2023-02-16T23:08:15.680Z,28.33
2023-02-16T23:10:59.754Z,27.52
2023-02-16T23:13:28.516Z,25.02
2023-02-16T23:16:11.521Z,24.40
2023-02-16T23:18:42.239Z,24.92
2023-02-16T23:21:13.928Z,25.20
2023-02-16T23:23:40.498Z,24.88
2023-02-16T23:26:08.267Z,24.73
2023-02-16T23:28:39.362Z,23.48
2023-02-16T23:31:06.190Z,24.08
2023-02-16T23:33:33.373Z,25.63
2023-02-16T23:36:03.039Z,25.80
2023-02-16T23:38:30.682Z,24.63
2023-02-16T23:41:05.556Z,24.60
2023-02-16T23:43:32.886Z,23.95
2023-02-16T23:46:02.912Z,24.10
2023-02-16T23:48:29.991Z,20.63
2023-02-16T23:50:57.462Z,22.25
2023-02-16T23:53:28.040Z,22.15
2023-02-16T23:56:07.895Z,21.98
2023-02-16T23:58:45.048Z,21.92
